Who's Online

We have 2 guests online

Aviation WX

[source: ADDS]
METAR
KIAD 202052Z 04010KT 10SM BKN250 17/01 A3033 RMK AO2 SLP270 T01670006 56021 =
TAF
KIAD 202053Z 2021/2124 09009KT P6SM FEW250 FM210000 09005KT P6SM SKC FM210600 00000KT P6SM SKC =
SR / SS: 00:08 / 13:32 UTC (Washington-Dulles 2014-04-20)

JoomlaWatch Agent

Home Products and Services

This section describes Multilink Systems products and services

 

 

Under construction Please Standby